createdAt,value
2022-08-17T00:06:47.542Z,23.7
2022-08-17T00:13:14.290Z,23.7
2022-08-17T00:20:13.761Z,23.8
2022-08-17T00:27:01.721Z,23.8
2022-08-17T00:34:05.611Z,23.7
2022-08-17T00:39:41.944Z,23.7
2022-08-17T00:45:37.402Z,23.8
2022-08-17T00:51:31.495Z,23.7
2022-08-17T00:56:59.546Z,23.8
2022-08-17T01:03:15.152Z,23.7
2022-08-17T01:08:57.445Z,23.7
2022-08-17T01:15:03.895Z,23.7
2022-08-17T01:20:41.915Z,23.7
2022-08-17T01:26:24.733Z,23.7
2022-08-17T01:33:27.326Z,23.7
2022-08-17T01:39:19.224Z,23.7
2022-08-17T01:45:00.377Z,23.7
2022-08-17T01:50:49.829Z,23.7
2022-08-17T01:56:28.932Z,23.7
2022-08-17T02:02:47.494Z,23.7
2022-08-17T02:09:34.185Z,23.7
2022-08-17T02:15:59.118Z,23.7
2022-08-17T02:22:05.597Z,23.7
2022-08-17T02:28:22.731Z,23.6
2022-08-17T02:35:11.104Z,23.7
2022-08-17T02:40:52.620Z,23.7
2022-08-17T02:46:51.555Z,23.7
2022-08-17T02:53:02.159Z,23.6
2022-08-17T02:59:26.021Z,23.7
2022-08-17T03:05:08.587Z,23.6
2022-08-17T03:10:44.481Z,23.7
2022-08-17T03:16:00.251Z,23.6
2022-08-17T03:21:43.094Z,23.6
2022-08-17T03:28:15.112Z,23.6
2022-08-17T03:33:51.591Z,23.6
2022-08-17T03:39:46.407Z,23.6
2022-08-17T03:46:45.112Z,23.6
2022-08-17T03:52:23.848Z,23.6
2022-08-17T03:58:05.371Z,23.6
2022-08-17T04:03:58.985Z,23.6
2022-08-17T04:09:35.425Z,23.6
2022-08-17T04:15:09.953Z,23.6
2022-08-17T04:20:30.765Z,23.6
2022-08-17T04:26:52.384Z,23.6
2022-08-17T04:33:37.144Z,23.6
2022-08-17T04:39:19.716Z,23.6
2022-08-17T04:45:27.812Z,23.6
2022-08-17T04:51:21.793Z,23.6
2022-08-17T04:57:23.122Z,23.6
2022-08-17T05:03:06.781Z,23.6
2022-08-17T05:08:55.533Z,23.6
2022-08-17T05:14:50.200Z,23.6
2022-08-17T05:20:16.170Z,23.6
2022-08-17T05:26:45.687Z,23.6
2022-08-17T05:33:12.106Z,23.6
2022-08-17T05:38:56.710Z,23.6
2022-08-17T05:44:38.337Z,23.6
2022-08-17T05:51:02.689Z,23.6
2022-08-17T05:57:03.228Z,23.6
2022-08-17T06:02:54.760Z,23.6
2022-08-17T06:08:32.350Z,23.6
2022-08-17T06:14:27.798Z,23.6
2022-08-17T06:20:31.690Z,23.6
2022-08-17T06:26:01.586Z,23.6
2022-08-17T06:32:05.876Z,23.6
2022-08-17T06:37:49.676Z,23.7
2022-08-17T06:45:06.200Z,23.7
2022-08-17T06:50:47.550Z,23.7
2022-08-17T06:57:27.410Z,23.7
2022-08-17T07:03:43.473Z,23.7
2022-08-17T07:09:38.152Z,23.7
2022-08-17T07:15:14.935Z,23.7
2022-08-17T07:21:07.557Z,23.7
2022-08-17T07:27:33.690Z,23.7
2022-08-17T07:33:15.269Z,23.7
2022-08-17T07:39:16.790Z,23.7
2022-08-17T07:45:53.161Z,23.8
2022-08-17T07:51:39.923Z,23.8
2022-08-17T07:58:19.970Z,23.8
2022-08-17T08:03:59.651Z,23.8
2022-08-17T08:10:21.782Z,23.8
2022-08-17T08:16:26.542Z,23.8
2022-08-17T08:23:16.627Z,23.8
2022-08-17T08:28:42.543Z,23.8
2022-08-17T08:35:19.501Z,23.8
2022-08-17T08:41:50.902Z,23.8
2022-08-17T08:48:12.849Z,23.8
2022-08-17T08:55:22.622Z,23.8
2022-08-17T09:02:11.201Z,23.8
2022-08-17T09:09:37.684Z,23.8
2022-08-17T09:15:41.291Z,23.8
2022-08-17T09:22:38.486Z,23.9
2022-08-17T09:28:17.324Z,23.8
2022-08-17T09:34:01.997Z,23.9
2022-08-17T09:39:56.078Z,23.8
2022-08-17T09:45:47.076Z,23.9
2022-08-17T09:52:08.499Z,23.9
2022-08-17T09:58:45.449Z,23.9
2022-08-17T10:04:29.595Z,23.9
2022-08-17T10:10:18.205Z,23.9
2022-08-17T10:16:51.458Z,23.9
2022-08-17T10:22:54.888Z,23.9
2022-08-17T10:30:06.122Z,23.9
2022-08-17T10:36:15.844Z,23.9
2022-08-17T10:42:11.147Z,23.9
2022-08-17T10:49:18.834Z,23.9
2022-08-17T10:55:00.860Z,24
2022-08-17T11:00:44.130Z,24
2022-08-17T11:06:21.227Z,24
2022-08-17T11:11:59.259Z,24
2022-08-17T11:17:43.342Z,24
2022-08-17T11:23:24.271Z,24
2022-08-17T11:29:03.538Z,24
2022-08-17T11:35:03.501Z,24
2022-08-17T11:40:30.128Z,24
2022-08-17T11:46:05.128Z,23.9
2022-08-17T11:52:19.419Z,24
2022-08-17T11:58:53.494Z,24
2022-08-17T12:04:28.625Z,24
2022-08-17T12:10:09.553Z,24
2022-08-17T12:17:25.921Z,24
2022-08-17T12:23:25.699Z,24
2022-08-17T12:30:11.769Z,24
2022-08-17T12:35:40.569Z,24
2022-08-17T12:41:48.257Z,24
2022-08-17T12:47:39.549Z,24
2022-08-17T12:53:52.390Z,24.1
2022-08-17T12:59:47.046Z,24.1
2022-08-17T13:05:35.766Z,24.1
2022-08-17T13:11:25.195Z,24.1
2022-08-17T13:17:12.792Z,24
2022-08-17T13:22:42.922Z,24.1
2022-08-17T13:28:35.839Z,24.1
2022-08-17T13:34:48.991Z,24.1
2022-08-17T13:40:52.681Z,24.1
2022-08-17T13:47:15.797Z,24.1
2022-08-17T13:53:16.445Z,24.1
2022-08-17T13:59:36.132Z,24.1
2022-08-17T14:05:31.742Z,24.1
2022-08-17T14:11:48.579Z,24.1
2022-08-17T14:17:55.576Z,24.1
2022-08-17T14:24:05.472Z,24.1
2022-08-17T14:30:22.506Z,24.1
2022-08-17T14:36:07.856Z,24.1
2022-08-17T14:41:54.866Z,24.1
2022-08-17T14:47:44.975Z,24.1
2022-08-17T14:53:30.986Z,24.1
2022-08-17T14:59:53.425Z,24.1
2022-08-17T15:05:18.625Z,24.1
2022-08-17T15:11:02.218Z,24.1
2022-08-17T15:16:54.999Z,24.1
2022-08-17T15:23:02.198Z,24.1
2022-08-17T15:28:49.949Z,24.1
2022-08-17T15:34:35.388Z,24.2
2022-08-17T15:40:26.766Z,24.2
2022-08-17T15:46:16.749Z,24.2
2022-08-17T15:51:56.356Z,24.1
2022-08-17T15:57:40.662Z,24.2
2022-08-17T16:06:33.517Z,24.2
2022-08-17T16:12:15.633Z,24.2
2022-08-17T16:18:28.821Z,24.2
2022-08-17T16:24:14.946Z,24.2
2022-08-17T16:30:34.224Z,24.2
2022-08-17T16:36:51.914Z,24.2
2022-08-17T16:42:33.377Z,24.2
2022-08-17T16:48:10.639Z,24.2
2022-08-17T16:54:34.213Z,24.2
2022-08-17T17:00:45.776Z,24.2
2022-08-17T17:06:51.287Z,24.2
2022-08-17T17:12:35.018Z,24.2
2022-08-17T17:18:41.134Z,24.2
2022-08-17T17:24:30.165Z,24.2
2022-08-17T17:30:21.204Z,24.2
2022-08-17T17:36:01.775Z,24.2
2022-08-17T17:41:43.072Z,24.2
2022-08-17T17:48:24.716Z,24.2
2022-08-17T17:55:04.173Z,24.2
2022-08-17T18:01:14.971Z,24.2
2022-08-17T18:06:54.393Z,24.2
2022-08-17T18:13:25.907Z,24.2
2022-08-17T18:19:10.123Z,24.2
2022-08-17T18:25:10.371Z,24.2
2022-08-17T18:30:41.874Z,24.3
2022-08-17T18:36:51.943Z,24.2
2022-08-17T18:42:34.245Z,24.2
2022-08-17T18:48:41.314Z,24.2
2022-08-17T18:54:34.594Z,24.2
2022-08-17T19:00:12.732Z,24.3
2022-08-17T19:06:13.510Z,24.2
2022-08-17T19:11:37.483Z,24.2
2022-08-17T19:17:21.157Z,24.2
2022-08-17T19:23:03.740Z,24.3
2022-08-17T19:29:55.181Z,24.2
2022-08-17T19:35:24.490Z,24.2
2022-08-17T19:41:25.077Z,24.2
2022-08-17T19:47:26.126Z,24.2
2022-08-17T19:53:33.181Z,24.2
2022-08-17T19:59:35.597Z,24.2
2022-08-17T20:05:22.798Z,24.2
2022-08-17T20:11:28.999Z,24.2
2022-08-17T20:17:22.604Z,24.3
2022-08-17T20:23:25.198Z,24.3
2022-08-17T20:28:57.450Z,24.3
2022-08-17T20:34:37.282Z,24.2
2022-08-17T20:40:14.914Z,24.3
2022-08-17T20:45:24.142Z,24.3
2022-08-17T20:51:28.157Z,24.3
2022-08-17T20:57:15.142Z,24.2
2022-08-17T21:02:37.738Z,24.3
2022-08-17T21:08:34.208Z,24.3
2022-08-17T21:14:49.016Z,24.3
2022-08-17T21:20:51.049Z,24.3
2022-08-17T21:26:31.714Z,24.3
2022-08-17T21:32:59.552Z,24.3
2022-08-17T21:38:29.424Z,24.3
2022-08-17T21:44:12.591Z,24.3
2022-08-17T21:49:54.250Z,24.3
2022-08-17T21:55:16.983Z,24.3
2022-08-17T22:01:18.011Z,24.3
2022-08-17T22:06:40.606Z,24.3
2022-08-17T22:12:02.462Z,24.3
2022-08-17T22:18:25.540Z,24.3
2022-08-17T22:24:01.753Z,24.3
2022-08-17T22:29:49.336Z,24.3
2022-08-17T22:35:31.028Z,24.3
2022-08-17T22:41:23.532Z,24.3
2022-08-17T22:47:03.085Z,24.3
2022-08-17T22:52:55.154Z,24.3
2022-08-17T22:58:16.880Z,24.3
2022-08-17T23:04:18.886Z,24.3
2022-08-17T23:09:55.659Z,24.3
2022-08-17T23:15:50.298Z,24.3
2022-08-17T23:21:29.911Z,24.3
2022-08-17T23:26:53.169Z,24.3
2022-08-17T23:32:00.796Z,24.3
2022-08-17T23:37:53.197Z,24.3
2022-08-17T23:43:41.400Z,24.3
2022-08-17T23:49:27.350Z,24.3
2022-08-17T23:55:05.219Z,24.3
